Time;durP1;ratioP1;P1;durP2;ratioP2;P2;SDS_P1;SDS_P2;PMS_P1;PMS_P2;Temp;Humidity;BMP_temperature;BMP_pressure;BME280_temperature;BME280_humidity;BME280_pressure;Samples;Min_cycle;Max_cycle;Signal;HPM_P1;HPM_P2
2021/11/08 00:01:01;;;;;;;8.90;6.63;;;7.40;95.00;;;;;;5015343;28;20022;-78
2021/11/08 00:03:31;;;;;;;8.52;6.78;;;7.40;95.10;;;;;;5015456;28;20061;-77
2021/11/08 00:06:00;;;;;;;11.18;7.30;;;7.40;95.00;;;;;;5015427;28;20026;-79
2021/11/08 00:08:27;;;;;;;9.95;6.80;;;7.30;95.00;;;;;;5015137;28;20029;-78
2021/11/08 00:10:54;;;;;;;11.00;7.87;;;7.30;95.00;;;;;;5015338;28;20022;-76
2021/11/08 00:13:21;;;;;;;12.05;6.68;;;7.30;95.00;;;;;;5015113;28;20029;-77
2021/11/08 00:16:11;;;;;;;10.77;6.50;;;7.30;94.80;;;;;;5015350;28;20022;-76
2021/11/08 00:21:22;;;;;;;12.30;7.00;;;7.30;94.70;;;;;;5014986;28;20506;-77
2021/11/08 00:23:50;;;;;;;13.82;7.55;;;7.30;94.60;;;;;;5014037;28;20467;-77
2021/11/08 00:26:16;;;;;;;9.45;6.50;;;7.30;94.60;;;;;;5014152;28;20049;-78
2021/11/08 00:28:42;;;;;;;11.05;7.95;;;7.30;94.40;;;;;;5014924;28;20041;-79
2021/11/08 00:31:08;;;;;;;7.47;5.95;;;7.30;94.40;;;;;;5014937;28;20026;-78
2021/11/08 00:33:34;;;;;;;9.88;6.60;;;7.30;94.20;;;;;;5014833;28;20036;-79
2021/11/08 00:36:00;;;;;;;12.98;6.28;;;7.30;94.20;;;;;;5014806;28;20430;-78
2021/11/08 00:38:28;;;;;;;9.77;5.70;;;7.30;94.20;;;;;;5014784;28;20047;-79
2021/11/08 00:40:55;;;;;;;9.40;7.35;;;7.30;94.10;;;;;;5014537;28;20022;-78
2021/11/08 00:43:22;;;;;;;10.07;7.28;;;7.20;94.00;;;;;;5014696;28;20152;-78
2021/11/08 00:45:48;;;;;;;9.38;7.40;;;7.20;94.10;;;;;;5014635;28;20022;-78
2021/11/08 00:48:17;;;;;;;10.32;6.97;;;7.30;94.10;;;;;;5014608;28;20113;-78
2021/11/08 00:50:43;;;;;;;8.50;6.50;;;7.30;94.00;;;;;;5014615;28;20021;-78
2021/11/08 00:53:09;;;;;;;11.02;7.10;;;7.30;93.90;;;;;;5014259;28;20034;-79
2021/11/08 00:55:37;;;;;;;9.98;8.13;;;7.30;93.90;;;;;;5003903;28;20058;-77
2021/11/08 00:58:03;;;;;;;11.05;8.43;;;7.30;93.90;;;;;;5011222;28;20502;-78
2021/11/08 01:00:31;;;;;;;10.40;6.63;;;7.30;93.80;;;;;;5014367;28;20097;-79
2021/11/08 01:03:01;;;;;;;8.32;6.68;;;7.30;93.80;;;;;;5014206;28;20061;-78
2021/11/08 01:05:27;;;;;;;9.93;7.93;;;7.30;93.60;;;;;;5014220;28;20025;-78
2021/11/08 01:07:53;;;;;;;8.13;6.90;;;7.30;93.50;;;;;;5014275;28;20471;-77
2021/11/08 01:10:19;;;;;;;10.70;7.75;;;7.20;93.60;;;;;;5014296;28;20050;-78
2021/11/08 01:12:47;;;;;;;9.25;6.95;;;7.30;93.70;;;;;;5014440;28;20495;-78
2021/11/08 01:15:14;;;;;;;11.55;7.20;;;7.30;93.60;;;;;;5014279;28;20077;-78
2021/11/08 01:17:41;;;;;;;10.60;6.97;;;7.30;93.60;;;;;;5015307;28;20057;-78
2021/11/08 01:20:09;;;;;;;13.95;7.55;;;7.30;93.60;;;;;;4997392;28;20506;-79
2021/11/08 01:22:36;;;;;;;11.68;7.22;;;7.30;93.60;;;;;;5014447;28;20099;-77
2021/11/08 01:25:04;;;;;;;12.80;7.68;;;7.30;93.50;;;;;;5014350;28;20037;-77
2021/11/08 01:27:40;;;;;;;8.20;7.22;;;7.20;93.50;;;;;;5014101;28;20034;-76
2021/11/08 01:30:13;;;;;;;10.80;6.57;;;7.20;93.60;;;;;;5013911;28;20444;-77
2021/11/08 01:32:40;;;;;;;10.73;7.32;;;7.20;93.30;;;;;;5014087;28;20026;-77
2021/11/08 01:35:07;;;;;;;10.55;5.93;;;7.20;93.30;;;;;;5013986;28;20105;-77
2021/11/08 01:37:32;;;;;;;11.05;6.75;;;7.30;93.30;;;;;;5014220;28;20029;-76
2021/11/08 01:39:58;;;;;;;8.38;6.38;;;7.20;93.20;;;;;;4996225;28;20211;-76
2021/11/08 01:42:25;;;;;;;7.60;5.45;;;7.20;93.10;;;;;;5013734;28;20037;-76
2021/11/08 01:44:51;;;;;;;8.65;6.80;;;7.20;93.10;;;;;;4996096;28;20057;-76
2021/11/08 01:47:17;;;;;;;9.23;7.32;;;7.10;93.20;;;;;;4996068;28;20026;-77
2021/11/08 01:49:43;;;;;;;10.82;7.10;;;7.10;93.20;;;;;;5013996;28;20497;-78
2021/11/08 01:52:12;;;;;;;8.30;6.50;;;7.10;93.20;;;;;;5013657;28;20680;-77
2021/11/08 01:54:38;;;;;;;8.02;6.47;;;7.10;93.20;;;;;;5006281;28;20022;-75
2021/11/08 01:57:07;;;;;;;10.20;7.70;;;7.10;93.20;;;;;;5013416;28;20046;-77
2021/11/08 01:59:33;;;;;;;9.15;7.15;;;7.20;93.20;;;;;;5013654;28;20022;-75
2021/11/08 02:01:59;;;;;;;10.10;7.55;;;7.20;93.30;;;;;;5013455;28;20483;-77
2021/11/08 02:04:26;;;;;;;11.60;8.55;;;7.20;93.20;;;;;;5013524;28;20017;-76
2021/11/08 02:06:52;;;;;;;10.52;6.55;;;7.20;93.20;;;;;;5013422;28;20022;-77
2021/11/08 02:09:19;;;;;;;11.88;8.73;;;7.20;93.00;;;;;;5013577;28;20101;-77
2021/11/08 02:11:45;;;;;;;12.95;8.10;;;7.20;93.00;;;;;;5013353;28;20029;-77
2021/11/08 02:14:11;;;;;;;13.60;8.32;;;7.30;93.10;;;;;;5013585;28;20022;-76
2021/11/08 02:16:37;;;;;;;9.65;7.47;;;7.30;93.20;;;;;;5013245;28;20097;-77
2021/11/08 02:19:06;;;;;;;11.27;7.30;;;7.30;92.90;;;;;;5012962;28;20022;-77
2021/11/08 02:21:35;;;;;;;11.90;8.50;;;7.30;93.00;;;;;;5013153;28;20077;-75
2021/11/08 02:24:03;;;;;;;12.27;8.60;;;7.30;93.30;;;;;;5013074;28;20033;-76
2021/11/08 02:26:29;;;;;;;10.95;6.72;;;7.20;93.00;;;;;;5013235;28;20021;-77
2021/11/08 02:28:55;;;;;;;12.80;8.48;;;7.20;93.00;;;;;;5012949;28;20029;-76
2021/11/08 02:31:23;;;;;;;10.70;7.38;;;7.20;93.00;;;;;;5013404;28;20049;-75
2021/11/08 02:33:53;;;;;;;15.20;8.43;;;7.20;93.00;;;;;;5011891;28;20038;-77
2021/11/08 02:36:21;;;;;;;13.05;8.30;;;7.20;93.00;;;;;;5013219;28;20037;-77
2021/11/08 02:38:51;;;;;;;11.95;8.10;;;7.20;93.30;;;;;;4995402;28;20075;-77
2021/11/08 02:41:18;;;;;;;12.07;8.02;;;7.20;92.80;;;;;;5013104;28;20025;-76
2021/11/08 02:43:46;;;;;;;10.80;8.30;;;7.20;92.90;;;;;;5013384;28;20474;-78
2021/11/08 02:46:16;;;;;;;10.55;7.85;;;7.30;92.90;;;;;;5012992;28;20041;-76
2021/11/08 02:48:45;;;;;;;12.50;7.57;;;7.30;92.90;;;;;;5017185;28;20018;-77
2021/11/08 02:51:19;;;;;;;11.15;9.13;;;7.30;92.80;;;;;;5016849;28;20057;-76
2021/11/08 02:53:48;;;;;;;13.13;8.55;;;7.30;92.80;;;;;;5017036;28;20109;-76
2021/11/08 02:56:15;;;;;;;11.73;8.25;;;7.30;92.90;;;;;;5016809;28;20018;-77
2021/11/08 02:58:43;;;;;;;13.55;8.52;;;7.20;92.90;;;;;;4999256;28;20113;-76
2021/11/08 03:01:12;;;;;;;13.52;8.80;;;7.20;92.90;;;;;;5016587;28;20041;-76
2021/11/08 03:03:44;;;;;;;13.98;8.63;;;7.30;92.90;;;;;;5016714;28;20033;-77
2021/11/08 03:09:14;;;;;;;11.13;8.35;;;7.20;92.80;;;;;;5006960;28;20116;-77
2021/11/08 03:11:41;;;;;;;12.90;9.00;;;7.10;93.00;;;;;;4999113;28;20018;-77
2021/11/08 03:14:09;;;;;;;13.15;8.93;;;7.20;93.00;;;;;;5001106;28;20117;-78
2021/11/08 03:16:45;;;;;;;13.00;9.13;;;7.20;92.90;;;;;;5016813;28;20105;-77
2021/11/08 03:21:42;;;;;;;12.98;8.50;;;7.30;92.90;;;;;;5016377;28;20442;-77
2021/11/08 03:24:13;;;;;;;14.38;8.90;;;7.30;92.90;;;;;;5016231;28;20072;-77
2021/11/08 03:29:11;;;;;;;15.85;10.48;;;7.30;92.70;;;;;;5016570;28;20537;-77
2021/11/08 03:31:39;;;;;;;12.98;8.27;;;7.30;92.60;;;;;;5016298;28;20049;-78
2021/11/08 03:34:07;;;;;;;12.68;8.52;;;7.40;92.50;;;;;;5016161;28;20387;-77
2021/11/08 03:36:33;;;;;;;16.33;9.18;;;7.30;92.60;;;;;;5016227;28;20388;-77
2021/11/08 03:38:59;;;;;;;12.73;10.23;;;7.30;92.70;;;;;;5017460;28;20036;-77
2021/11/08 03:41:25;;;;;;;12.88;9.70;;;7.30;92.60;;;;;;5016742;28;20487;-77
2021/11/08 03:43:50;;;;;;;13.10;10.05;;;7.30;92.60;;;;;;5016022;28;20026;-77
2021/11/08 03:46:17;;;;;;;18.05;9.13;;;7.30;92.60;;;;;;4998234;28;20025;-77
2021/11/08 03:48:44;;;;;;;13.70;9.38;;;7.30;92.70;;;;;;5016252;28;20022;-77
2021/11/08 03:51:10;;;;;;;16.25;8.93;;;7.30;92.70;;;;;;5016014;28;20133;-77
2021/11/08 03:53:36;;;;;;;12.95;8.82;;;7.30;92.60;;;;;;5014104;28;20032;-77
2021/11/08 03:56:06;;;;;;;11.68;9.13;;;7.30;92.60;;;;;;4999494;28;20368;-77
2021/11/08 03:58:32;;;;;;;13.73;9.70;;;7.40;92.60;;;;;;5012203;28;20467;-77
2021/11/08 04:00:59;;;;;;;14.35;10.13;;;7.30;92.60;;;;;;5015604;28;20053;-78
2021/11/08 04:03:25;;;;;;;15.50;10.63;;;7.30;92.90;;;;;;5016071;28;20109;-76
2021/11/08 04:05:51;;;;;;;14.88;9.90;;;7.30;92.50;;;;;;5015780;28;20395;-76
2021/11/08 04:08:21;;;;;;;10.77;7.75;;;7.30;92.60;;;;;;5015352;28;20097;-76
2021/11/08 04:10:51;;;;;;;21.08;9.68;;;7.30;92.50;;;;;;5015719;28;20017;-76
2021/11/08 04:13:19;;;;;;;13.68;9.65;;;7.30;92.50;;;;;;5015454;28;20049;-76
2021/11/08 04:15:47;;;;;;;12.18;9.52;;;7.40;92.50;;;;;;5015431;28;20026;-77
2021/11/08 04:18:18;;;;;;;10.40;8.57;;;7.30;92.50;;;;;;5015139;28;20032;-76
2021/11/08 04:20:47;;;;;;;13.32;8.35;;;7.30;92.40;;;;;;5015545;28;20489;-76
2021/11/08 04:23:15;;;;;;;11.20;8.68;;;7.30;92.50;;;;;;5015560;28;20486;-75
2021/11/08 04:25:42;;;;;;;13.43;9.45;;;7.30;92.60;;;;;;5015643;28;20022;-77
2021/11/08 04:28:08;;;;;;;15.43;9.33;;;7.30;92.70;;;;;;4997648;28;20026;-77
2021/11/08 04:30:38;;;;;;;15.02;10.55;;;7.20;92.70;;;;;;5007093;28;20113;-76
2021/11/08 04:33:16;;;;;;;14.40;9.48;;;7.20;92.70;;;;;;5014800;28;20022;-75
2021/11/08 04:51:09;;;;;;;14.07;10.18;;;7.30;92.60;;;;;;5014705;28;20419;-78
2021/11/08 04:53:51;;;;;;;13.35;10.10;;;7.30;92.60;;;;;;5014705;28;20101;-78
2021/11/08 05:31:40;;;;;;;17.52;10.73;;;6.80;94.10;;;;;;5013865;28;20093;-77
2021/11/08 05:34:05;;;;;;;13.85;11.05;;;6.70;94.50;;;;;;5013668;28;20014;-78
2021/11/08 05:36:31;;;;;;;16.65;11.50;;;6.70;94.90;;;;;;4995912;28;20030;-77
2021/11/08 05:38:57;;;;;;;15.98;12.40;;;6.60;95.30;;;;;;5013844;28;20040;-78
2021/11/08 05:41:23;;;;;;;15.55;10.80;;;6.50;95.70;;;;;;5014057;28;20105;-77
2021/11/08 05:43:49;;;;;;;14.50;10.82;;;6.50;95.80;;;;;;5033580;28;20434;-78
2021/11/08 05:46:16;;;;;;;13.90;10.15;;;6.50;95.90;;;;;;5013857;28;20029;-77
2021/11/08 05:48:42;;;;;;;18.05;11.88;;;6.50;96.20;;;;;;4996262;28;20098;-79
2021/11/08 05:51:08;;;;;;;16.48;12.20;;;6.50;96.40;;;;;;4994004;28;20023;-78
2021/11/08 05:53:34;;;;;;;15.45;13.63;;;6.50;96.40;;;;;;4994185;28;20475;-77
2021/11/08 05:56:19;;;;;;;21.63;12.77;;;6.60;96.40;;;;;;4993517;28;20027;-78
2021/11/08 06:51:01;;;;;;;17.00;10.90;;;6.30;98.60;;;;;;4952398;29;20113;-79
2021/11/08 06:53:29;;;;;;;15.23;11.05;;;6.40;98.50;;;;;;4991286;28;20041;-78
2021/11/08 06:55:57;;;;;;;18.70;10.27;;;6.40;98.50;;;;;;5014095;28;20026;-80
2021/11/08 06:58:24;;;;;;;13.18;9.80;;;6.30;98.50;;;;;;5012511;28;20073;-79
2021/11/08 07:00:50;;;;;;;12.65;8.25;;;6.30;98.20;;;;;;5012390;28;20044;-78
2021/11/08 07:03:17;;;;;;;13.13;9.33;;;6.30;98.40;;;;;;5015292;28;20053;-78
2021/11/08 07:05:43;;;;;;;14.75;9.38;;;6.20;98.60;;;;;;5013941;28;20026;-79
2021/11/08 07:08:10;;;;;;;18.33;11.10;;;6.30;98.80;;;;;;5008626;28;20073;-80
2021/11/08 07:10:38;;;;;;;;;;;6.20;99.00;;;;;;4995693;28;20038;-76
2021/11/08 07:13:04;;;;;;;;;;;6.20;98.70;;;;;;5010956;28;19906;-79
2021/11/08 07:15:30;;;;;;;12.82;9.02;;;6.20;98.90;;;;;;5009848;28;19996;-79
2021/11/08 07:17:56;;;;;;;13.70;8.98;;;6.20;99.10;;;;;;5001232;28;20034;-79
2021/11/08 07:20:24;;;;;;;11.63;9.88;;;6.20;99.40;;;;;;5011994;28;20431;-79
2021/11/08 07:22:50;;;;;;;;;;;6.20;99.50;;;;;;5012275;28;20117;-77
2021/11/08 07:25:16;;;;;;;12.55;9.43;;;6.20;99.20;;;;;;5012254;28;19952;-80
2021/11/08 07:27:43;;;;;;;11.95;8.52;;;6.10;99.70;;;;;;5012031;28;20046;-78
2021/11/08 07:30:10;;;;;;;12.15;9.20;;;6.10;99.90;;;;;;5011955;28;20030;-78
2021/11/08 07:32:36;;;;;;;11.55;9.02;;;6.20;99.90;;;;;;5011969;28;20046;-79
2021/11/08 07:35:02;;;;;;;10.65;8.60;;;6.20;99.90;;;;;;5014829;28;20136;-79
2021/11/08 07:37:28;;;;;;;10.50;7.87;;;6.20;99.90;;;;;;5014705;28;20283;-79
2021/11/08 07:39:54;;;;;;;13.02;9.35;;;6.10;99.90;;;;;;5016165;28;20263;-79
2021/11/08 07:42:20;;;;;;;10.85;8.45;;;6.20;99.90;;;;;;5019210;28;20398;-78
2021/11/08 07:44:47;;;;;;;12.18;7.68;;;6.10;99.90;;;;;;5016125;28;20026;-78
2021/11/08 07:47:13;;;;;;;12.00;9.25;;;6.10;99.90;;;;;;5015301;28;20030;-77
2021/11/08 07:49:39;;;;;;;10.52;6.65;;;6.10;99.90;;;;;;5016161;28;20077;-77
2021/11/08 07:52:06;;;;;;;12.30;8.38;;;6.10;99.90;;;;;;5015600;28;20028;-79
2021/11/08 07:54:32;;;;;;;10.05;7.93;;;6.10;99.90;;;;;;5015320;28;20475;-77
2021/11/08 07:56:59;;;;;;;14.90;8.75;;;6.10;99.90;;;;;;5015523;28;20054;-78
2021/11/08 07:59:27;;;;;;;11.98;8.45;;;6.10;99.90;;;;;;5015605;28;20463;-78
2021/11/08 08:01:53;;;;;;;12.63;8.63;;;6.10;99.90;;;;;;4997726;28;20037;-78
2021/11/08 08:04:21;;;;;;;11.43;7.90;;;6.20;99.90;;;;;;5015377;28;20037;-79
2021/11/08 08:06:49;;;;;;;8.15;6.72;;;6.20;99.90;;;;;;5015453;28;20025;-77
2021/11/08 08:09:19;;;;;;;10.55;7.95;;;6.10;99.90;;;;;;5015686;28;20021;-78
2021/11/08 08:11:46;;;;;;;9.02;7.65;;;6.10;99.90;;;;;;5015397;28;20026;-78
2021/11/08 08:14:12;;;;;;;11.18;8.48;;;6.20;99.90;;;;;;5015477;28;20025;-79
2021/11/08 08:16:39;;;;;;;11.00;8.73;;;6.20;99.90;;;;;;5015678;28;20072;-78
2021/11/08 08:19:05;;;;;;;13.77;9.52;;;6.30;99.90;;;;;;5014946;28;20294;-76
2021/11/08 08:21:31;;;;;;;11.35;7.22;;;6.30;99.90;;;;;;5015123;28;20064;-78
2021/11/08 08:24:02;;;;;;;15.27;8.80;;;6.40;99.90;;;;;;4997265;28;20026;-80
2021/11/08 08:26:32;;;;;;;12.38;8.95;;;6.40;99.90;;;;;;5014954;28;20463;-80
2021/11/08 08:29:03;;;;;;;13.40;8.82;;;6.50;99.90;;;;;;5014750;28;20022;-79
2021/11/08 08:31:32;;;;;;;10.73;8.48;;;6.50;99.90;;;;;;5014745;28;20034;-79
2021/11/08 08:33:58;;;;;;;10.27;8.27;;;6.60;99.90;;;;;;5014725;28;20033;-79
2021/11/08 08:36:24;;;;;;;16.02;9.73;;;6.70;99.90;;;;;;5015110;28;20018;-79
2021/11/08 08:38:50;;;;;;;12.60;8.10;;;6.80;99.70;;;;;;5015748;28;20041;-79
2021/11/08 08:41:16;;;;;;;11.95;8.57;;;6.80;99.40;;;;;;5015634;28;20022;-78
2021/11/08 08:43:42;;;;;;;15.40;8.70;;;6.80;99.30;;;;;;5014726;28;20125;-79
2021/11/08 08:46:08;;;;;;;12.10;9.00;;;6.90;99.20;;;;;;5014201;28;20110;-79
2021/11/08 08:48:34;;;;;;;11.48;8.80;;;7.00;99.00;;;;;;5014685;28;20048;-78
2021/11/08 08:51:02;;;;;;;13.57;8.70;;;7.00;98.90;;;;;;5014508;28;20026;-79
2021/11/08 08:53:29;;;;;;;10.95;8.68;;;7.00;98.80;;;;;;5014677;28;20090;-78
2021/11/08 08:55:55;;;;;;;13.13;7.82;;;7.00;98.70;;;;;;4996772;28;20036;-78
2021/11/08 08:58:21;;;;;;;12.05;9.63;;;7.00;98.70;;;;;;5014847;28;20046;-79
2021/11/08 09:00:49;;;;;;;10.50;8.95;;;7.10;98.60;;;;;;5016067;28;20026;-79
2021/11/08 09:03:20;;;;;;;10.60;7.85;;;7.10;98.30;;;;;;5014451;28;20116;-78
2021/11/08 09:05:48;;;;;;;12.05;8.80;;;7.10;97.90;;;;;;5014144;28;20030;-79
2021/11/08 09:08:14;;;;;;;9.68;7.70;;;7.10;97.70;;;;;;5014003;28;20034;-79
2021/11/08 09:10:41;;;;;;;11.23;8.50;;;7.10;97.50;;;;;;5013852;28;20079;-81
2021/11/08 09:13:08;;;;;;;9.27;8.20;;;7.10;97.40;;;;;;5014082;28;20030;-78
2021/11/08 09:15:36;;;;;;;15.20;9.02;;;7.20;97.30;;;;;;5014139;28;20305;-79
2021/11/08 09:18:03;;;;;;;10.05;7.85;;;7.20;97.00;;;;;;5013947;28;20032;-79
2021/11/08 09:20:29;;;;;;;;;;;7.20;96.90;;;;;;5014451;28;20054;-77
2021/11/08 09:22:56;;;;;;;9.00;7.95;;;7.20;96.90;;;;;;5013797;28;20298;-78
2021/11/08 09:25:24;;;;;;;13.15;10.20;;;7.10;97.00;;;;;;5013815;28;20025;-78
2021/11/08 09:27:51;;;;;;;;;;;7.10;97.00;;;;;;5014321;28;20489;-78
2021/11/08 09:30:19;;;;;;;9.52;7.60;;;7.10;97.00;;;;;;5013763;28;19985;-79
2021/11/08 09:32:46;;;;;;;12.85;9.00;;;7.10;97.00;;;;;;5013993;28;20100;-79
2021/11/08 09:35:13;;;;;;;18.52;10.00;;;7.20;97.00;;;;;;5013521;28;20493;-78
2021/11/08 09:37:44;;;;;;;11.77;9.60;;;7.20;96.90;;;;;;5013420;28;20061;-78
2021/11/08 09:40:15;;;;;;;11.40;7.60;;;7.30;96.90;;;;;;5013442;28;20374;-79
2021/11/08 09:42:42;;;;;;;12.82;8.82;;;7.30;96.70;;;;;;5013623;28;20046;-79
2021/11/08 09:45:09;;;;;;;13.75;8.15;;;7.20;96.60;;;;;;5013762;28;20022;-78
2021/11/08 09:47:36;;;;;;;13.57;8.98;;;7.20;96.60;;;;;;5006432;28;20022;-78
2021/11/08 09:50:07;;;;;;;13.47;10.00;;;7.20;96.60;;;;;;5013407;28;20101;-79
2021/11/08 09:52:37;;;;;;;15.85;11.88;;;7.20;96.60;;;;;;5013510;28;20025;-78
2021/11/08 09:55:06;;;;;;;13.52;10.70;;;7.20;96.70;;;;;;5013161;28;20038;-79
2021/11/08 09:57:32;;;;;;;11.27;8.50;;;7.30;96.70;;;;;;5012935;28;20108;-77
2021/11/08 09:59:58;;;;;;;12.32;9.10;;;7.40;96.60;;;;;;4995143;28;20030;-80
2021/11/08 10:02:24;;;;;;;11.88;9.35;;;7.40;96.30;;;;;;5012692;28;20030;-79
2021/11/08 10:04:50;;;;;;;9.98;8.20;;;7.50;96.10;;;;;;5013476;28;20406;-79
2021/11/08 10:07:16;;;;;;;13.13;10.48;;;7.50;96.00;;;;;;5012903;28;20026;-80
2021/11/08 10:09:43;;;;;;;11.82;8.88;;;7.50;95.90;;;;;;5012948;28;20104;-80
2021/11/08 10:12:12;;;;;;;11.77;8.50;;;7.50;95.90;;;;;;5013000;28;20026;-79
2021/11/08 10:14:41;;;;;;;14.43;9.48;;;7.50;95.70;;;;;;5012740;28;20026;-78
2021/11/08 10:17:07;;;;;;;12.82;9.25;;;7.50;95.70;;;;;;5013218;28;20101;-78
2021/11/08 10:19:35;;;;;;;11.15;8.75;;;7.50;95.70;;;;;;5011463;28;20022;-78
2021/11/08 10:22:05;;;;;;;12.65;9.45;;;7.50;95.60;;;;;;4995056;28;20100;-81
2021/11/08 10:24:34;;;;;;;13.57;9.88;;;7.60;95.70;;;;;;5012582;28;20052;-78
2021/11/08 10:27:07;;;;;;;13.32;9.25;;;7.60;95.60;;;;;;5012568;28;20034;-78
2021/11/08 10:29:33;;;;;;;12.85;8.00;;;7.60;95.60;;;;;;5012595;28;20068;-79
2021/11/08 10:32:04;;;;;;;11.45;9.15;;;7.60;95.40;;;;;;5012769;28;20101;-78
2021/11/08 10:34:30;;;;;;;11.98;9.40;;;7.50;95.50;;;;;;5012815;28;20064;-79
2021/11/08 10:37:00;;;;;;;12.82;9.40;;;7.60;95.60;;;;;;5012704;28;20026;-78
2021/11/08 10:39:27;;;;;;;12.52;9.60;;;7.60;95.40;;;;;;5012777;28;20467;-79
2021/11/08 10:41:54;;;;;;;11.15;9.45;;;7.50;95.40;;;;;;5012981;28;20069;-79
2021/11/08 10:44:22;;;;;;;12.38;9.10;;;7.60;95.50;;;;;;5012699;28;20026;-78
2021/11/08 10:46:49;;;;;;;;;;;7.60;95.40;;;;;;5013029;28;20524;-78
2021/11/08 10:49:19;;;;;;;12.27;9.13;;;7.50;95.10;;;;;;5012550;28;19909;-78
2021/11/08 10:51:56;;;;;;;13.95;9.85;;;7.40;95.30;;;;;;5012950;28;20030;-79
2021/11/08 10:54:36;;;;;;;12.88;8.98;;;7.30;95.70;;;;;;5013717;28;20022;-79
2021/11/08 10:57:08;;;;;;;11.70;8.80;;;7.30;95.90;;;;;;5013521;28;20121;-78
2021/11/08 10:59:37;;;;;;;13.05;9.32;;;7.30;96.10;;;;;;5012572;28;20474;-78
2021/11/08 11:02:07;;;;;;;13.27;9.85;;;7.30;96.40;;;;;;5012173;28;20146;-79
2021/11/08 11:04:46;;;;;;;11.75;8.20;;;7.40;96.30;;;;;;5012641;28;20018;-79
2021/11/08 11:07:24;;;;;;;14.55;9.10;;;7.40;96.10;;;;;;5012415;28;20026;-80
2021/11/08 11:09:51;;;;;;;10.88;7.97;;;7.50;96.10;;;;;;5015681;28;20021;-79
2021/11/08 11:12:23;;;;;;;11.85;9.23;;;7.60;96.10;;;;;;5019698;28;20022;-78
2021/11/08 11:14:51;;;;;;;11.38;8.27;;;7.60;95.80;;;;;;5016744;28;20392;-79
2021/11/08 11:17:22;;;;;;;11.10;8.63;;;7.60;95.60;;;;;;5016075;28;20058;-79
2021/11/08 11:19:48;;;;;;;14.90;10.18;;;7.60;95.70;;;;;;5015035;28;20065;-79
2021/11/08 11:22:19;;;;;;;11.68;7.93;;;7.60;95.80;;;;;;5016421;28;20041;-79
2021/11/08 11:24:55;;;;;;;8.68;7.32;;;7.70;95.70;;;;;;5016210;28;20018;-78
2021/11/08 11:27:24;;;;;;;10.53;7.70;;;7.70;95.60;;;;;;5016205;28;20093;-79
2021/11/08 11:29:51;;;;;;;15.15;9.10;;;7.70;95.50;;;;;;5016339;28;20049;-79
2021/11/08 11:32:27;;;;;;;9.18;8.05;;;7.90;95.50;;;;;;5018160;28;20443;-78
2021/11/08 11:34:57;;;;;;;11.30;7.80;;;7.90;95.40;;;;;;5017669;28;20029;-78
2021/11/08 11:37:26;;;;;;;9.20;7.15;;;8.00;94.80;;;;;;5016129;28;20026;-78
2021/11/08 11:40:14;;;;;;;9.52;8.30;;;8.00;94.70;;;;;;5016116;28;20027;-77
2021/11/08 11:42:52;;;;;;;11.32;9.63;;;8.00;94.40;;;;;;5015940;28;20085;-79
2021/11/08 11:45:18;;;;;;;9.32;6.78;;;8.00;94.50;;;;;;5015901;28;20034;-77
2021/11/08 11:48:05;;;;;;;15.63;9.02;;;8.00;94.30;;;;;;5015935;28;20022;-78
2021/11/08 11:50:35;;;;;;;9.30;6.80;;;8.00;94.30;;;;;;5015646;28;20076;-78
2021/11/08 11:53:04;;;;;;;12.40;7.95;;;8.00;94.20;;;;;;5015576;28;20084;-80
2021/11/08 11:55:31;;;;;;;12.15;8.75;;;7.90;94.30;;;;;;5015502;28;20375;-79
2021/11/08 11:58:00;;;;;;;9.90;6.88;;;7.90;94.30;;;;;;5015455;28;20051;-78
2021/11/08 12:00:29;;;;;;;10.20;7.50;;;7.90;94.30;;;;;;5015687;28;20489;-79
2021/11/08 12:02:56;;;;;;;13.00;8.57;;;7.90;94.10;;;;;;5015432;28;20113;-80
2021/11/08 12:05:23;;;;;;;9.07;7.03;;;7.90;94.20;;;;;;5015424;28;20018;-79
2021/11/08 12:07:56;;;;;;;9.75;7.07;;;7.90;94.10;;;;;;5015239;28;20463;-78
2021/11/08 12:10:23;;;;;;;9.00;7.55;;;7.90;94.20;;;;;;5015327;28;20399;-79
2021/11/08 12:12:49;;;;;;;12.57;8.73;;;7.90;94.20;;;;;;5013808;28;20038;-78
2021/11/08 12:15:28;;;;;;;12.25;8.10;;;7.90;94.30;;;;;;5014968;28;20097;-79
2021/11/08 12:17:55;;;;;;;9.77;7.57;;;7.90;94.40;;;;;;5014877;28;20146;-78
2021/11/08 12:20:26;;;;;;;11.27;7.95;;;8.00;94.20;;;;;;5014602;28;20029;-78
2021/11/08 12:22:53;;;;;;;9.57;7.43;;;8.00;94.10;;;;;;5015013;28;20056;-79
2021/11/08 12:25:26;;;;;;;8.07;7.20;;;8.00;93.90;;;;;;5015150;28;20030;-79
2021/11/08 12:27:55;;;;;;;12.90;8.07;;;8.00;93.80;;;;;;4997560;28;20026;-78
2021/11/08 12:30:29;;;;;;;9.88;8.35;;;8.00;93.90;;;;;;5014639;28;20018;-79
2021/11/08 12:32:58;;;;;;;8.35;6.57;;;8.00;94.10;;;;;;5015064;28;20487;-78
2021/11/08 12:35:30;;;;;;;10.35;8.45;;;8.00;93.90;;;;;;5015083;28;20026;-77
2021/11/08 12:37:56;;;;;;;12.52;8.18;;;8.00;94.20;;;;;;5014763;28;20026;-80
2021/11/08 12:40:30;;;;;;;9.38;7.43;;;8.00;94.00;;;;;;5014945;28;20022;-78
2021/11/08 12:42:56;;;;;;;8.60;7.30;;;8.00;94.00;;;;;;5014393;28;20487;-80
2021/11/08 12:45:29;;;;;;;11.90;7.20;;;8.00;94.00;;;;;;5014898;28;20022;-79
2021/11/08 12:48:08;;;;;;;13.88;7.60;;;8.00;93.90;;;;;;4996900;28;20447;-77
2021/11/08 12:50:42;;;;;;;9.38;6.20;;;8.00;94.00;;;;;;5016522;28;20104;-79
2021/11/08 12:53:19;;;;;;;11.70;8.68;;;7.90;93.70;;;;;;4998580;28;20025;-78
2021/11/08 12:55:45;;;;;;;9.15;7.50;;;7.90;94.00;;;;;;5014579;28;20029;-78
2021/11/08 12:58:12;;;;;;;10.35;6.85;;;7.90;94.00;;;;;;5014524;28;20480;-79
2021/11/08 13:00:49;;;;;;;11.18;7.40;;;7.90;94.10;;;;;;4997805;28;20053;-78
2021/11/08 13:03:16;;;;;;;9.10;6.13;;;7.90;94.20;;;;;;4996526;28;20509;-78
2021/11/08 13:05:47;;;;;;;9.52;7.45;;;7.90;94.10;;;;;;5014650;28;20018;-79
2021/11/08 13:08:24;;;;;;;9.23;6.97;;;7.80;94.20;;;;;;5014798;28;20025;-78
2021/11/08 13:11:11;;;;;;;12.43;8.88;;;7.80;94.40;;;;;;5014178;28;20064;-79
2021/11/08 13:13:38;;;;;;;9.70;8.20;;;7.80;94.50;;;;;;5015054;28;20487;-79
2021/11/08 13:16:11;;;;;;;12.25;6.95;;;7.80;94.60;;;;;;5014174;28;20075;-78
2021/11/08 13:18:46;;;;;;;11.40;7.65;;;7.70;94.80;;;;;;5014217;28;20022;-78
2021/11/08 13:21:24;;;;;;;9.32;7.70;;;7.70;95.10;;;;;;5014064;28;20034;-78
2021/11/08 13:23:56;;;;;;;9.75;7.55;;;7.60;95.20;;;;;;5014041;28;20034;-79
2021/11/08 13:26:22;;;;;;;10.30;7.70;;;7.50;95.50;;;;;;5014239;28;20041;-79
2021/11/08 13:28:48;;;;;;;10.45;7.90;;;7.50;95.60;;;;;;5013731;28;20074;-78
2021/11/08 13:31:16;;;;;;;11.98;8.75;;;7.50;95.60;;;;;;5012867;28;20052;-80
2021/11/08 13:33:49;;;;;;;8.90;7.25;;;7.50;95.70;;;;;;5013767;28;20483;-80
2021/11/08 13:36:15;;;;;;;10.35;7.63;;;7.60;95.70;;;;;;5013621;28;20057;-77
2021/11/08 13:38:53;;;;;;;12.68;8.38;;;7.60;95.60;;;;;;5013783;28;20018;-78
2021/11/08 13:41:24;;;;;;;12.00;7.30;;;7.60;95.50;;;;;;5013327;28;20026;-78
2021/11/08 13:43:58;;;;;;;9.35;8.35;;;7.50;95.50;;;;;;5013227;28;20110;-79
2021/11/08 13:46:24;;;;;;;10.75;7.50;;;7.50;95.50;;;;;;5013540;28;20033;-79
2021/11/08 13:48:55;;;;;;;10.60;8.27;;;7.50;95.50;;;;;;5013412;28;20026;-78
2021/11/08 13:51:26;;;;;;;7.65;6.50;;;7.50;95.40;;;;;;5013413;28;20026;-78
2021/11/08 13:54:00;;;;;;;10.52;7.85;;;7.50;95.40;;;;;;5013585;28;20033;-79
2021/11/08 13:56:38;;;;;;;8.02;7.22;;;7.50;95.40;;;;;;5013318;28;20129;-78
2021/11/08 13:59:10;;;;;;;14.90;8.23;;;7.50;95.60;;;;;;5013539;28;20340;-79
2021/11/08 14:01:39;;;;;;;9.18;7.50;;;7.60;95.50;;;;;;4995700;28;20037;-78
2021/11/08 14:04:07;;;;;;;10.80;7.97;;;7.60;95.40;;;;;;5013772;28;20032;-78
2021/11/08 14:06:37;;;;;;;9.70;6.38;;;7.60;95.30;;;;;;4977703;28;20079;-79
2021/11/08 14:09:21;;;;;;;10.32;8.43;;;7.60;95.00;;;;;;4975526;28;20114;-78
2021/11/08 14:11:47;;;;;;;12.85;7.85;;;7.60;95.00;;;;;;4975178;28;20019;-77
2021/11/08 14:14:20;;;;;;;10.80;7.45;;;7.60;95.00;;;;;;4974711;28;20019;-80
2021/11/08 14:16:49;;;;;;;9.63;5.85;;;7.50;94.90;;;;;;4974161;28;20019;-80
2021/11/08 14:19:16;;;;;;;11.30;7.40;;;7.50;95.00;;;;;;4974107;28;20039;-78
2021/11/08 14:21:44;;;;;;;11.93;7.90;;;7.40;95.00;;;;;;4973945;28;20047;-80
2021/11/08 14:24:12;;;;;;;9.40;7.65;;;7.30;95.20;;;;;;4974345;28;20069;-78
2021/11/08 14:26:42;;;;;;;11.88;8.02;;;7.10;95.60;;;;;;4975149;28;20045;-78
2021/11/08 14:29:14;;;;;;;10.05;7.57;;;7.10;96.00;;;;;;4974355;28;20023;-79
2021/11/08 14:31:42;;;;;;;8.50;7.10;;;7.10;96.30;;;;;;4974397;28;20050;-78
2021/11/08 14:34:10;;;;;;;;;;;7.00;96.40;;;;;;4974726;28;20054;-78
2021/11/08 14:36:48;;;;;;;8.60;6.20;;;7.00;96.30;;;;;;4974076;28;19913;-79
2021/11/08 14:39:17;;;;;;;8.48;5.90;;;6.90;96.60;;;;;;4973775;28;20058;-78
2021/11/08 14:41:55;;;;;;;13.50;8.50;;;6.80;96.80;;;;;;4995315;28;20030;-78
2021/11/08 14:44:23;;;;;;;12.18;8.75;;;6.70;97.10;;;;;;5013354;28;20025;-77
2021/11/08 14:46:53;;;;;;;14.85;9.05;;;6.80;97.30;;;;;;5015969;28;20121;-80
2021/11/08 14:49:23;;;;;;;12.45;8.82;;;6.80;97.40;;;;;;5012923;28;20029;-82
2021/11/08 14:51:59;;;;;;;11.48;8.95;;;6.80;97.60;;;;;;5012848;28;20018;-79